Lovell Field
KCHA : now visible

Airfield :











YOU CAN JOIN US ON...

 
LOGIN :

Register | Disclaimer

   EN    FR    IT 

 









Legend :    VFR   Marginal VFR   IFR   Intensive IFR   Very Intensive IFR
Visi :
Ceiling :
>= 8 km
>= 3000ft
5 to 8 km
1000 to 3000 ft
1500m to 5 km
500 to 1000 ft
800 to 1500m
200 to 500 ft
< 800m
< 200 ft
Symbols :   Thunderstorms  Fog  Heavy snow  Heavy precipitations  Wind > 20 kt






- Airport Elevation : 683 ft
- IATA code : CHA


KCHA - Lovell Field

CURRENT METAR :
  • 111953Z 29004KT 10SM SCT050 SCT250 34/22 A2999 RMK AO2 SLP144 TCU DSNT SE MDT CU S-SW T03440217

EXPIRED METARs :
  • 111853Z 00000KT 10SM SCT050TCU SCT150 SCT250 34/22 A3001 RMK AO2 SLP153 TCU W MDT CU NE AND S T03390217
  • 111753Z VRB03KT 10SM SCT040 SCT210 SCT250 33/22 A3003 RMK AO2 SLP161 MDT CU W-N T03330217 10333 20239 58013

TAF KCHA
Valid from the 11 at 18:00 until the 12 at 18:00 UTC


111720Z 1118/1218 30004KT P6SM FEW030 SCT100
FM112000 30004KT P6SM VCTS BKN040CB
FM112200 VRB03KT P6SM SCT050
FM121000 00000KT P6SM FEW008
FM121400 VRB02KT P6SM SCT050
KZTL FIR / North America



MET'MAP, your aeronautical weather chart ! - Copyright ORBIFLY December 2007 - Disclaimer

ORBIFLY MET'MAP TEAM :

Programming & Development : Alexandra Zaïnal
Concept & original design : Baudouin d'Aumeries
Assistance for programming : Marc-Olivier Méhu
Technical & hardware support : Manuel Goepfert

Contact : metmap@orbifly.com




SOURCES & CREDITS :

   NOAA       Earth
Advisory